createdAt,value
2018-06-30T00:00:53.092Z,85.80
2018-06-30T00:03:25.917Z,85.50
2018-06-30T00:05:54.922Z,85.10
2018-06-30T00:08:23.909Z,85.30
2018-06-30T00:10:52.932Z,85.00
2018-06-30T00:13:21.921Z,83.90
2018-06-30T00:15:51.375Z,83.60
2018-06-30T00:18:20.372Z,83.20
2018-06-30T00:20:49.377Z,82.80
2018-06-30T00:23:18.402Z,82.60
2018-06-30T00:25:47.440Z,82.50
2018-06-30T00:28:16.429Z,83.10
2018-06-30T00:33:14.071Z,82.60
2018-06-30T00:35:43.145Z,82.90
2018-06-30T00:38:12.151Z,83.10
2018-06-30T00:43:09.858Z,83.40
2018-06-30T00:45:38.911Z,83.30
2018-06-30T00:48:07.945Z,82.90
2018-06-30T00:50:36.965Z,82.90
2018-06-30T00:53:05.991Z,83.20
2018-06-30T00:55:35.063Z,83.50
2018-06-30T00:58:04.189Z,83.80
2018-06-30T01:00:33.225Z,84.10
2018-06-30T01:03:02.257Z,84.40
2018-06-30T01:05:31.337Z,84.50
2018-06-30T01:08:00.577Z,84.80
2018-06-30T01:10:29.581Z,85.20
2018-06-30T01:12:58.613Z,85.20
2018-06-30T01:15:27.601Z,84.90
2018-06-30T01:17:56.664Z,84.60
2018-06-30T01:20:25.710Z,84.40
2018-06-30T01:22:54.730Z,84.80
2018-06-30T01:25:23.744Z,84.40
2018-06-30T01:27:52.847Z,84.50
2018-06-30T01:30:21.908Z,83.50
2018-06-30T01:32:50.896Z,83.60
2018-06-30T01:35:19.912Z,83.70
2018-06-30T01:37:48.941Z,83.60
2018-06-30T01:40:17.964Z,83.50
2018-06-30T01:42:46.949Z,83.40
2018-06-30T01:45:15.939Z,83.40
2018-06-30T01:47:44.972Z,83.30
2018-06-30T01:50:13.956Z,83.20
2018-06-30T01:52:42.981Z,83.10
2018-06-30T01:55:12.337Z,83.40
2018-06-30T01:57:41.341Z,83.50
2018-06-30T02:00:10.340Z,83.40
2018-06-30T02:02:39.355Z,83.50
2018-06-30T02:05:08.356Z,83.20
2018-06-30T02:07:37.346Z,83.30
2018-06-30T02:10:06.369Z,83.50
2018-06-30T02:12:35.406Z,83.20
2018-06-30T02:15:05.062Z,83.20
2018-06-30T02:17:34.050Z,83.20
2018-06-30T02:20:03.282Z,83.30
2018-06-30T02:22:32.301Z,83.50
2018-06-30T02:25:01.292Z,83.80
2018-06-30T02:27:30.341Z,84.00
2018-06-30T02:29:59.370Z,83.80
2018-06-30T02:32:28.363Z,83.80
2018-06-30T02:34:57.353Z,84.20
2018-06-30T02:37:26.385Z,84.70
2018-06-30T02:39:55.571Z,84.90
2018-06-30T02:42:24.577Z,85.00
2018-06-30T02:44:53.610Z,85.60
2018-06-30T02:47:22.606Z,85.90
2018-06-30T02:49:51.600Z,86.40
2018-06-30T02:52:21.008Z,87.60
2018-06-30T02:54:50.011Z,87.80
2018-06-30T02:57:18.989Z,87.70
2018-06-30T02:59:48.005Z,87.70
2018-06-30T03:02:17.003Z,88.60
2018-06-30T03:04:45.990Z,88.60
2018-06-30T03:07:15.004Z,89.60
2018-06-30T03:09:44.168Z,89.80
2018-06-30T03:12:13.281Z,90.00
2018-06-30T03:14:42.282Z,90.10
2018-06-30T03:17:11.316Z,90.40
2018-06-30T03:19:40.304Z,90.70
2018-06-30T03:22:09.330Z,90.20
2018-06-30T03:24:38.320Z,90.30
2018-06-30T03:27:07.537Z,90.20
2018-06-30T03:29:36.556Z,90.40
2018-06-30T03:32:05.584Z,90.50
2018-06-30T03:34:34.667Z,90.40
2018-06-30T03:37:03.661Z,90.60
2018-06-30T03:39:32.644Z,90.60
2018-06-30T03:42:01.664Z,90.50
2018-06-30T03:44:30.689Z,90.40
2018-06-30T03:46:59.684Z,89.60
2018-06-30T03:49:28.961Z,88.50
2018-06-30T03:51:57.952Z,87.50
2018-06-30T03:54:26.936Z,86.80
2018-06-30T03:56:56.283Z,85.60
2018-06-30T03:59:25.295Z,84.50
2018-06-30T04:01:54.353Z,82.10
2018-06-30T04:04:23.385Z,79.40
2018-06-30T04:06:52.441Z,76.40
2018-06-30T04:09:21.473Z,75.30
2018-06-30T04:11:50.457Z,76.40
2018-06-30T04:14:19.483Z,79.40
2018-06-30T04:16:48.554Z,81.90
2018-06-30T04:19:17.753Z,82.90
2018-06-30T04:21:47.599Z,83.80
2018-06-30T04:24:16.599Z,84.30
2018-06-30T04:26:45.604Z,84.10
2018-06-30T04:29:14.941Z,83.40
2018-06-30T04:31:43.945Z,83.30
2018-06-30T04:34:12.995Z,83.40
2018-06-30T04:36:42.220Z,83.00
2018-06-30T04:39:11.224Z,83.60
2018-06-30T04:41:40.215Z,83.50
2018-06-30T04:44:10.060Z,82.10
2018-06-30T04:46:39.046Z,81.20
2018-06-30T04:49:08.029Z,80.80
2018-06-30T04:51:37.125Z,81.70
2018-06-30T04:54:06.168Z,81.90
2018-06-30T04:56:35.152Z,81.50
2018-06-30T04:59:04.216Z,82.90
2018-06-30T05:06:30.529Z,81.10
2018-06-30T05:11:28.236Z,81.60
2018-06-30T05:13:57.257Z,81.40
2018-06-30T05:16:26.244Z,82.10
2018-06-30T05:18:55.252Z,79.00
2018-06-30T05:21:24.273Z,78.80
2018-06-30T05:23:53.265Z,78.70
2018-06-30T05:26:22.276Z,79.60
2018-06-30T05:28:51.304Z,79.50
2018-06-30T05:31:20.293Z,78.30
2018-06-30T05:33:49.338Z,78.50
2018-06-30T05:36:18.324Z,77.40
2018-06-30T05:38:47.314Z,77.30
2018-06-30T05:41:16.341Z,76.50
2018-06-30T05:43:45.386Z,77.50
2018-06-30T05:46:14.382Z,77.00
2018-06-30T05:48:43.368Z,77.00
2018-06-30T05:51:12.488Z,76.50
2018-06-30T05:53:41.475Z,75.60
2018-06-30T05:56:10.460Z,75.40
2018-06-30T05:58:39.482Z,74.20
2018-06-30T06:01:08.489Z,74.20
2018-06-30T06:03:37.534Z,74.10
2018-06-30T06:06:06.564Z,74.50
2018-06-30T06:08:35.545Z,74.60
2018-06-30T06:11:04.568Z,73.10
2018-06-30T06:13:33.602Z,72.10
2018-06-30T06:16:02.633Z,70.00
2018-06-30T06:18:31.625Z,71.50
2018-06-30T06:21:00.641Z,69.00
2018-06-30T06:23:29.629Z,67.90
2018-06-30T06:25:58.656Z,69.40
2018-06-30T06:28:27.649Z,68.60
2018-06-30T06:30:56.661Z,68.40
2018-06-30T06:33:25.671Z,67.00
2018-06-30T06:35:54.661Z,65.60
2018-06-30T06:38:23.682Z,66.50
2018-06-30T06:40:52.705Z,66.40
2018-06-30T06:43:21.692Z,64.40
2018-06-30T06:45:50.677Z,64.80
2018-06-30T06:48:19.697Z,60.10
2018-06-30T06:50:48.703Z,62.00
2018-06-30T06:53:17.730Z,61.50
2018-06-30T06:55:46.953Z,59.60
2018-06-30T06:58:15.996Z,59.20
2018-06-30T07:00:45.097Z,60.20
2018-06-30T07:03:14.117Z,59.70
2018-06-30T07:05:43.150Z,57.50
2018-06-30T07:08:12.160Z,57.60
2018-06-30T07:10:41.144Z,57.80
2018-06-30T07:13:10.192Z,58.80
2018-06-30T07:15:39.230Z,58.00
2018-06-30T07:18:08.208Z,58.20
2018-06-30T07:20:37.420Z,59.10
2018-06-30T07:23:06.395Z,59.20
2018-06-30T07:25:35.440Z,58.70
2018-06-30T07:28:04.430Z,57.60
2018-06-30T07:30:33.457Z,56.80
2018-06-30T07:33:02.500Z,57.10
2018-06-30T07:35:31.511Z,57.20
2018-06-30T07:38:00.537Z,56.80
2018-06-30T07:40:29.613Z,57.70
2018-06-30T07:42:58.608Z,58.60
2018-06-30T07:45:27.776Z,58.30
2018-06-30T07:47:56.765Z,57.70
2018-06-30T07:50:25.809Z,56.20
2018-06-30T07:52:54.775Z,57.10
2018-06-30T07:55:23.789Z,56.20
2018-06-30T07:57:52.864Z,57.10
2018-06-30T08:00:21.891Z,57.60
2018-06-30T08:02:50.875Z,58.00
2018-06-30T08:07:48.532Z,56.80
2018-06-30T08:10:17.569Z,57.60
2018-06-30T08:12:46.584Z,55.50
2018-06-30T08:15:15.926Z,55.40
2018-06-30T08:17:44.949Z,55.10
2018-06-30T08:20:13.924Z,55.00
2018-06-30T08:22:42.945Z,55.00
2018-06-30T08:25:11.966Z,54.40
2018-06-30T08:27:41.052Z,55.60
2018-06-30T08:30:10.085Z,54.70
2018-06-30T08:32:39.062Z,55.80
2018-06-30T08:35:08.089Z,56.30
2018-06-30T08:37:37.077Z,55.60
2018-06-30T08:40:06.084Z,56.40
2018-06-30T08:42:35.440Z,57.10
2018-06-30T08:45:04.460Z,56.80
2018-06-30T08:47:33.456Z,57.10
2018-06-30T08:50:02.484Z,57.20
2018-06-30T08:52:31.526Z,55.90
2018-06-30T08:55:00.549Z,55.00
2018-06-30T08:57:29.538Z,56.80
2018-06-30T08:59:58.631Z,54.50
2018-06-30T09:02:27.794Z,55.70
2018-06-30T09:04:56.822Z,55.80
2018-06-30T09:07:25.817Z,56.00
2018-06-30T09:09:54.868Z,55.60
2018-06-30T09:12:23.940Z,55.20
2018-06-30T09:14:52.946Z,55.80
2018-06-30T09:19:50.900Z,57.10
2018-06-30T09:22:20.566Z,56.50
2018-06-30T09:24:49.910Z,55.80
2018-06-30T09:27:19.025Z,53.20
2018-06-30T09:29:48.181Z,52.10
2018-06-30T09:32:17.257Z,52.60
2018-06-30T09:34:46.372Z,52.00
2018-06-30T09:37:15.445Z,52.70
2018-06-30T09:39:44.614Z,53.80
2018-06-30T09:42:14.233Z,53.70
2018-06-30T09:44:43.653Z,53.10
2018-06-30T09:47:12.737Z,53.10
2018-06-30T09:49:41.773Z,53.30
2018-06-30T09:52:10.802Z,53.30
2018-06-30T09:54:39.816Z,53.90
2018-06-30T09:57:09.256Z,53.70
2018-06-30T09:59:38.371Z,52.20
2018-06-30T10:02:07.369Z,51.70
2018-06-30T10:04:36.516Z,52.80
2018-06-30T10:07:05.736Z,51.90
2018-06-30T10:09:34.762Z,52.70
2018-06-30T10:12:03.785Z,53.80
2018-06-30T10:14:32.940Z,54.80
2018-06-30T10:17:02.088Z,54.70
2018-06-30T10:19:31.104Z,54.60
2018-06-30T10:22:00.233Z,56.20
2018-06-30T10:24:29.225Z,56.10
2018-06-30T10:26:58.237Z,53.50
2018-06-30T10:29:27.354Z,55.10
2018-06-30T10:31:56.346Z,54.80
2018-06-30T10:34:25.617Z,55.10
2018-06-30T10:36:54.668Z,54.50
2018-06-30T10:39:23.667Z,53.90
2018-06-30T10:41:52.845Z,55.10
2018-06-30T10:44:21.880Z,53.40
2018-06-30T10:46:50.907Z,53.80
2018-06-30T10:49:19.909Z,54.60
2018-06-30T10:51:49.055Z,55.70
2018-06-30T10:54:18.105Z,55.50
2018-06-30T10:59:15.762Z,54.10
2018-06-30T11:01:44.795Z,55.60
2018-06-30T11:04:13.851Z,53.80
2018-06-30T11:06:42.808Z,54.10
2018-06-30T11:09:12.681Z,54.40
2018-06-30T11:11:41.683Z,53.70
2018-06-30T11:14:10.683Z,53.00
2018-06-30T11:16:39.832Z,52.80
2018-06-30T11:19:08.826Z,52.90
2018-06-30T11:21:37.907Z,52.20
2018-06-30T11:24:06.929Z,51.90
2018-06-30T11:26:35.988Z,50.80
2018-06-30T11:29:05.057Z,53.40
2018-06-30T11:31:34.117Z,48.00
2018-06-30T11:34:03.097Z,49.80
2018-06-30T11:36:32.124Z,51.00
2018-06-30T11:39:01.115Z,50.70
2018-06-30T11:41:30.101Z,50.40
2018-06-30T11:43:59.169Z,51.10
2018-06-30T11:46:28.150Z,50.80
2018-06-30T11:48:57.136Z,52.40
2018-06-30T11:51:26.158Z,51.10
2018-06-30T11:53:55.292Z,50.90
2018-06-30T11:56:24.285Z,51.70
2018-06-30T11:58:53.267Z,51.40
2018-06-30T12:01:22.285Z,50.60
2018-06-30T12:03:51.288Z,50.70
2018-06-30T12:06:20.325Z,50.90
2018-06-30T12:08:49.713Z,49.90
2018-06-30T12:11:18.736Z,48.20
2018-06-30T12:13:47.737Z,49.60
2018-06-30T12:16:16.765Z,51.50
2018-06-30T12:18:45.793Z,51.40
2018-06-30T12:21:14.792Z,52.80
2018-06-30T12:23:43.821Z,53.50
2018-06-30T12:26:12.814Z,53.10
2018-06-30T12:28:41.838Z,53.30
2018-06-30T12:31:10.829Z,54.00
2018-06-30T12:33:39.865Z,54.00
2018-06-30T12:36:08.895Z,53.20
2018-06-30T12:38:37.885Z,52.20
2018-06-30T12:41:06.925Z,53.10
2018-06-30T12:43:35.905Z,52.60
2018-06-30T12:46:04.985Z,53.30
2018-06-30T12:48:33.972Z,50.70
2018-06-30T12:51:03.053Z,49.10
2018-06-30T12:53:32.036Z,50.30
2018-06-30T12:56:01.020Z,50.00
2018-06-30T12:58:30.048Z,49.30
2018-06-30T13:00:59.149Z,50.40
2018-06-30T13:03:28.173Z,50.90
2018-06-30T13:05:57.185Z,52.10
2018-06-30T13:08:26.185Z,52.30
2018-06-30T13:10:55.313Z,52.50
2018-06-30T13:13:24.305Z,52.00
2018-06-30T13:15:53.280Z,51.80
2018-06-30T13:18:22.308Z,51.70
2018-06-30T13:20:51.307Z,51.30
2018-06-30T13:23:20.379Z,51.50
2018-06-30T13:25:49.341Z,51.80
2018-06-30T13:28:18.319Z,51.30
2018-06-30T13:30:47.430Z,50.70
2018-06-30T13:33:16.409Z,51.60
2018-06-30T13:35:45.396Z,49.80
2018-06-30T13:38:14.411Z,50.00
2018-06-30T13:40:43.471Z,49.00
2018-06-30T13:43:12.899Z,48.10
2018-06-30T13:45:41.861Z,48.30
2018-06-30T13:48:10.840Z,47.40
2018-06-30T13:50:39.866Z,46.40
2018-06-30T13:53:08.980Z,47.70
2018-06-30T13:55:38.041Z,47.50
2018-06-30T13:58:07.096Z,48.50
2018-06-30T14:00:36.097Z,47.70
2018-06-30T14:03:05.197Z,48.00
2018-06-30T14:05:34.242Z,48.60
2018-06-30T14:08:03.239Z,47.60
2018-06-30T14:10:32.216Z,47.40
2018-06-30T14:13:01.242Z,46.40
2018-06-30T14:15:30.277Z,46.20
2018-06-30T14:17:59.528Z,46.90
2018-06-30T14:20:28.525Z,46.80
2018-06-30T14:22:57.529Z,45.60
2018-06-30T14:25:26.554Z,46.90
2018-06-30T14:27:55.561Z,49.30
2018-06-30T14:30:24.765Z,49.90
2018-06-30T14:32:53.753Z,50.50
2018-06-30T14:35:22.748Z,51.00
2018-06-30T14:37:51.765Z,50.30
2018-06-30T14:40:20.976Z,49.20
2018-06-30T14:42:49.961Z,48.20
2018-06-30T14:45:18.957Z,47.90
2018-06-30T14:47:48.204Z,45.80
2018-06-30T14:50:17.230Z,46.10
2018-06-30T14:52:46.221Z,46.20
2018-06-30T14:55:15.383Z,45.90
2018-06-30T14:57:44.384Z,43.80
2018-06-30T15:00:13.472Z,44.90
2018-06-30T15:02:42.774Z,45.90
2018-06-30T15:05:12.335Z,47.60
2018-06-30T15:07:41.366Z,48.10
2018-06-30T15:10:10.460Z,47.30
2018-06-30T15:12:39.517Z,47.60
2018-06-30T15:15:08.605Z,47.20
2018-06-30T15:17:37.705Z,46.90
2018-06-30T15:20:06.968Z,44.90
2018-06-30T15:22:36.110Z,41.20
2018-06-30T15:25:05.517Z,40.30
2018-06-30T15:27:34.701Z,39.30
2018-06-30T15:30:03.834Z,38.00
2018-06-30T15:32:32.955Z,38.20
2018-06-30T15:35:01.979Z,39.60
2018-06-30T15:37:31.026Z,40.20
2018-06-30T15:40:00.026Z,41.50
2018-06-30T15:44:57.820Z,45.30
2018-06-30T15:47:26.825Z,45.40
2018-06-30T15:49:55.857Z,44.00
2018-06-30T15:52:24.994Z,42.90
2018-06-30T15:54:54.037Z,41.00
2018-06-30T15:57:23.098Z,39.30
2018-06-30T15:59:52.114Z,36.80
2018-06-30T16:02:21.170Z,34.90
2018-06-30T16:04:50.168Z,34.30
2018-06-30T16:07:19.190Z,34.90
2018-06-30T16:09:48.342Z,36.10
2018-06-30T16:12:24.136Z,35.10
2018-06-30T16:14:53.180Z,33.00
2018-06-30T16:17:22.233Z,32.50
2018-06-30T16:19:51.242Z,35.10
2018-06-30T16:22:20.310Z,38.30
2018-06-30T16:24:49.342Z,40.40
2018-06-30T16:27:18.373Z,42.00
2018-06-30T16:29:47.461Z,41.80
2018-06-30T16:32:16.582Z,40.10
2018-06-30T16:34:45.585Z,38.60
2018-06-30T16:37:14.600Z,37.20
2018-06-30T16:39:43.609Z,34.90
2018-06-30T16:42:12.608Z,32.10
2018-06-30T16:44:41.629Z,32.50
2018-06-30T16:47:10.649Z,36.60
2018-06-30T16:49:39.637Z,38.00
2018-06-30T16:52:08.652Z,40.00
2018-06-30T16:54:37.645Z,42.10
2018-06-30T16:57:07.054Z,44.10
2018-06-30T16:59:36.042Z,45.70
2018-06-30T17:02:05.088Z,45.60
2018-06-30T17:04:34.104Z,45.80
2018-06-30T17:07:03.114Z,46.10
2018-06-30T17:09:32.292Z,46.30
2018-06-30T17:12:01.281Z,47.40
2018-06-30T17:14:30.361Z,47.80
2018-06-30T17:16:59.481Z,48.10
2018-06-30T17:19:28.565Z,48.90
2018-06-30T17:21:57.624Z,48.70
2018-06-30T17:24:26.638Z,48.50
2018-06-30T17:26:55.812Z,49.10
2018-06-30T17:29:24.837Z,48.40
2018-06-30T17:31:54.027Z,48.60
2018-06-30T17:34:23.140Z,48.50
2018-06-30T17:36:52.135Z,48.20
2018-06-30T17:39:21.120Z,49.00
2018-06-30T17:41:50.144Z,48.80
2018-06-30T17:44:19.164Z,48.90
2018-06-30T17:46:48.195Z,47.80
2018-06-30T17:49:17.181Z,47.10
2018-06-30T17:51:46.205Z,47.60
2018-06-30T17:54:15.201Z,46.70
2018-06-30T17:56:44.231Z,45.70
2018-06-30T17:59:13.274Z,44.10
2018-06-30T18:01:42.299Z,41.90
2018-06-30T18:04:11.316Z,42.20
2018-06-30T18:06:40.782Z,41.80
2018-06-30T18:09:10.946Z,42.80
2018-06-30T18:11:40.592Z,43.90
2018-06-30T18:14:09.945Z,45.10
2018-06-30T18:16:39.131Z,46.50
2018-06-30T18:19:08.158Z,47.10
2018-06-30T18:21:37.393Z,47.60
2018-06-30T18:24:06.585Z,47.90
2018-06-30T18:26:35.613Z,48.40
2018-06-30T18:29:05.404Z,48.80
2018-06-30T18:31:34.601Z,48.80
2018-06-30T18:34:03.634Z,48.60
2018-06-30T18:36:32.753Z,48.60
2018-06-30T18:39:01.789Z,49.10
2018-06-30T18:41:31.093Z,50.30
2018-06-30T18:44:00.101Z,50.30
2018-06-30T18:46:29.132Z,50.50
2018-06-30T18:48:58.248Z,50.80
2018-06-30T18:51:27.309Z,51.20
2018-06-30T18:53:56.313Z,51.60
2018-06-30T18:56:25.382Z,51.80
2018-06-30T18:58:54.444Z,51.80
2018-06-30T19:01:23.602Z,51.70
2018-06-30T19:03:53.053Z,51.20
2018-06-30T19:06:22.110Z,51.60
2018-06-30T19:08:51.155Z,51.70
2018-06-30T19:11:20.234Z,51.60
2018-06-30T19:13:49.276Z,51.90
2018-06-30T19:16:19.149Z,52.00
2018-06-30T19:18:48.177Z,51.70
2018-06-30T19:21:17.304Z,51.70
2018-06-30T19:23:46.321Z,52.10
2018-06-30T19:26:15.419Z,51.40
2018-06-30T19:28:44.476Z,51.80
2018-06-30T19:31:13.819Z,50.20
2018-06-30T19:33:42.904Z,50.70
2018-06-30T19:36:11.958Z,50.30
2018-06-30T19:38:40.992Z,50.70
2018-06-30T19:41:10.109Z,50.40
2018-06-30T19:43:39.147Z,51.00
2018-06-30T19:46:08.226Z,51.40
2018-06-30T19:48:37.431Z,51.20
2018-06-30T19:51:06.461Z,51.10
2018-06-30T19:53:35.584Z,51.40
2018-06-30T19:56:04.729Z,51.80
2018-06-30T19:58:33.747Z,52.20
2018-06-30T20:01:02.769Z,53.50
2018-06-30T20:03:31.765Z,53.10
2018-06-30T20:06:00.780Z,53.50
2018-06-30T20:08:29.877Z,53.50
2018-06-30T20:10:58.893Z,53.90
2018-06-30T20:13:27.963Z,53.90
2018-06-30T20:15:56.995Z,54.50
2018-06-30T20:18:25.977Z,54.90
2018-06-30T20:20:55.029Z,56.00
2018-06-30T20:23:24.105Z,56.70
2018-06-30T20:28:21.768Z,57.40
2018-06-30T20:30:50.801Z,57.50
2018-06-30T20:33:20.211Z,58.20
2018-06-30T20:35:49.088Z,58.90
2018-06-30T20:38:18.084Z,58.70
2018-06-30T20:40:47.185Z,58.90
2018-06-30T20:43:16.215Z,58.80
2018-06-30T20:45:46.176Z,59.80
2018-06-30T20:48:15.587Z,60.60
2018-06-30T20:53:13.471Z,63.10
2018-06-30T20:55:42.757Z,62.90
2018-06-30T20:58:11.775Z,63.10
2018-06-30T21:00:40.760Z,65.50
2018-06-30T21:03:11.265Z,64.70
2018-06-30T21:05:40.249Z,64.30
2018-06-30T21:08:09.471Z,65.50
2018-06-30T21:10:38.796Z,64.50
2018-06-30T21:13:07.919Z,63.70
2018-06-30T21:15:36.949Z,63.70
2018-06-30T21:18:05.957Z,62.70
2018-06-30T21:20:35.221Z,63.90
2018-06-30T21:23:04.207Z,65.30
2018-06-30T21:25:33.201Z,65.90
2018-06-30T21:28:02.217Z,65.50
2018-06-30T21:30:31.237Z,65.80
2018-06-30T21:33:00.255Z,65.70
2018-06-30T21:37:58.018Z,66.30
2018-06-30T21:40:27.009Z,66.60
2018-06-30T21:42:56.038Z,67.00
2018-06-30T21:45:25.080Z,67.50
2018-06-30T21:47:54.117Z,68.30
2018-06-30T21:50:23.105Z,69.30
2018-06-30T21:52:52.105Z,69.70
2018-06-30T21:55:21.122Z,70.00
2018-06-30T21:57:50.144Z,70.30
2018-06-30T22:00:28.445Z,71.30
2018-06-30T22:02:57.833Z,71.50
2018-06-30T22:05:26.824Z,72.10
2018-06-30T22:07:55.865Z,72.00
2018-06-30T22:10:25.053Z,72.00
2018-06-30T22:12:54.092Z,70.60
2018-06-30T22:15:23.089Z,71.00
2018-06-30T22:17:52.118Z,70.40
2018-06-30T22:20:21.105Z,71.10
2018-06-30T22:22:50.392Z,69.80
2018-06-30T22:25:19.389Z,69.80
2018-06-30T22:27:48.386Z,69.50
2018-06-30T22:30:17.404Z,70.00
2018-06-30T22:32:46.401Z,70.60
2018-06-30T22:35:15.461Z,71.30
2018-06-30T22:37:44.440Z,71.90
2018-06-30T22:40:17.099Z,72.40
2018-06-30T22:42:46.565Z,72.40
2018-06-30T22:45:16.215Z,72.80
2018-06-30T22:47:45.935Z,72.70
2018-06-30T22:50:15.940Z,72.60
2018-06-30T22:52:45.229Z,72.60
2018-06-30T22:55:14.355Z,73.10
2018-06-30T23:00:13.814Z,71.60
2018-06-30T23:02:42.592Z,71.70
2018-06-30T23:10:10.940Z,72.00
2018-06-30T23:12:40.000Z,72.10
2018-06-30T23:15:10.130Z,72.70
2018-06-30T23:17:39.141Z,72.80
2018-06-30T23:20:08.717Z,73.10
2018-06-30T23:22:54.761Z,73.50
2018-06-30T23:25:24.952Z,73.80
2018-06-30T23:27:54.169Z,74.40
2018-06-30T23:30:23.456Z,75.40
2018-06-30T23:32:52.584Z,74.90
2018-06-30T23:35:22.973Z,75.50
2018-06-30T23:37:52.457Z,76.30
2018-06-30T23:40:21.571Z,77.50
2018-06-30T23:42:50.609Z,77.20
2018-06-30T23:45:19.877Z,77.10
2018-06-30T23:47:49.384Z,79.50
2018-06-30T23:50:18.416Z,81.00
2018-06-30T23:52:47.415Z,82.50
2018-06-30T23:55:16.469Z,82.50
2018-06-30T23:57:45.485Z,83.10
